sensor_id;sensor_type;location;lat;lon;timestamp;pressure;altitude;pressure_sealevel;temperature;humidity
10464;BME280;5279;42.048;24.638;2023-03-12T00:01:38;96439.66;;;7.34;100.00
10464;BME280;5279;42.048;24.638;2023-03-12T00:04:07;96440.63;;;7.33;100.00
10464;BME280;5279;42.048;24.638;2023-03-12T00:06:33;96446.59;;;7.35;100.00
10464;BME280;5279;42.048;24.638;2023-03-12T00:09:00;96445.97;;;7.41;100.00
10464;BME280;5279;42.048;24.638;2023-03-12T00:11:28;96449.88;;;7.37;100.00
10464;BME280;5279;42.048;24.638;2023-03-12T00:13:57;96464.88;;;7.37;94.69
10464;BME280;5279;42.048;24.638;2023-03-12T00:16:25;96473.00;;;7.26;98.21
10464;BME280;5279;42.048;24.638;2023-03-12T00:18:53;96458.84;;;7.27;100.00
10464;BME280;5279;42.048;24.638;2023-03-12T00:21:22;96465.25;;;7.24;99.77
10464;BME280;5279;42.048;24.638;2023-03-12T00:23:49;96448.63;;;7.06;100.00
10464;BME280;5279;42.048;24.638;2023-03-12T00:26:18;96461.66;;;6.90;100.00
10464;BME280;5279;42.048;24.638;2023-03-12T00:28:46;96445.16;;;6.88;100.00
10464;BME280;5279;42.048;24.638;2023-03-12T00:31:15;96454.72;;;6.89;100.00
10464;BME280;5279;42.048;24.638;2023-03-12T00:33:42;96457.00;;;6.84;100.00
10464;BME280;5279;42.048;24.638;2023-03-12T00:36:09;96454.56;;;6.73;100.00
10464;BME280;5279;42.048;24.638;2023-03-12T00:38:37;96450.47;;;6.60;100.00
10464;BME280;5279;42.048;24.638;2023-03-12T00:41:04;96443.88;;;6.56;100.00
10464;BME280;5279;42.048;24.638;2023-03-12T00:43:31;96449.94;;;6.57;100.00
10464;BME280;5279;42.048;24.638;2023-03-12T00:45:58;96453.91;;;6.43;100.00
10464;BME280;5279;42.048;24.638;2023-03-12T00:48:24;96450.22;;;6.36;100.00
10464;BME280;5279;42.048;24.638;2023-03-12T00:50:51;96453.91;;;6.43;100.00
10464;BME280;5279;42.048;24.638;2023-03-12T00:53:18;96442.56;;;6.43;100.00
10464;BME280;5279;42.048;24.638;2023-03-12T00:55:47;96458.66;;;6.40;100.00
10464;BME280;5279;42.048;24.638;2023-03-12T00:58:13;96453.81;;;6.35;100.00
10464;BME280;5279;42.048;24.638;2023-03-12T01:00:40;96463.38;;;6.36;100.00
10464;BME280;5279;42.048;24.638;2023-03-12T01:03:07;96466.00;;;6.36;100.00
10464;BME280;5279;42.048;24.638;2023-03-12T01:05:34;96458.97;;;6.27;100.00
10464;BME280;5279;42.048;24.638;2023-03-12T01:08:02;96461.06;;;6.24;100.00
10464;BME280;5279;42.048;24.638;2023-03-12T01:10:29;96474.84;;;6.08;100.00
10464;BME280;5279;42.048;24.638;2023-03-12T01:12:58;96462.84;;;5.96;100.00
10464;BME280;5279;42.048;24.638;2023-03-12T01:15:25;96478.50;;;5.78;100.00
10464;BME280;5279;42.048;24.638;2023-03-12T01:17:52;96474.91;;;5.79;100.00
10464;BME280;5279;42.048;24.638;2023-03-12T01:20:19;96471.06;;;5.74;100.00
10464;BME280;5279;42.048;24.638;2023-03-12T01:22:47;96476.47;;;5.63;100.00
10464;BME280;5279;42.048;24.638;2023-03-12T01:25:14;96479.09;;;5.63;100.00
10464;BME280;5279;42.048;24.638;2023-03-12T01:27:41;96501.94;;;5.53;100.00
10464;BME280;5279;42.048;24.638;2023-03-12T01:30:10;96484.69;;;5.50;100.00
10464;BME280;5279;42.048;24.638;2023-03-12T01:32:37;96485.25;;;5.44;100.00
10464;BME280;5279;42.048;24.638;2023-03-12T01:35:04;96488.28;;;5.39;100.00
10464;BME280;5279;42.048;24.638;2023-03-12T01:37:32;96498.78;;;5.39;100.00
10464;BME280;5279;42.048;24.638;2023-03-12T01:39:59;96504.03;;;5.39;100.00
10464;BME280;5279;42.048;24.638;2023-03-12T01:42:26;96508.31;;;5.21;100.00
10464;BME280;5279;42.048;24.638;2023-03-12T01:44:55;96517.84;;;5.13;100.00
10464;BME280;5279;42.048;24.638;2023-03-12T01:47:24;96526.41;;;5.05;100.00
10464;BME280;5279;42.048;24.638;2023-03-12T01:49:53;96526.41;;;5.05;100.00
10464;BME280;5279;42.048;24.638;2023-03-12T01:52:23;96533.59;;;5.03;100.00
10464;BME280;5279;42.048;24.638;2023-03-12T01:54:54;96541.34;;;4.95;96.78
10464;BME280;5279;42.048;24.638;2023-03-12T01:57:26;96547.38;;;4.95;95.84
10464;BME280;5279;42.048;24.638;2023-03-12T01:59:57;96556.50;;;4.82;94.75
10464;BME280;5279;42.048;24.638;2023-03-12T02:02:27;96573.66;;;4.86;94.80
10464;BME280;5279;42.048;24.638;2023-03-12T02:05:00;96582.75;;;4.82;90.39
10464;BME280;5279;42.048;24.638;2023-03-12T02:07:29;96580.81;;;4.84;88.13
10464;BME280;5279;42.048;24.638;2023-03-12T02:09:56;96578.91;;;4.86;87.27
10464;BME280;5279;42.048;24.638;2023-03-12T02:12:23;96590.72;;;4.80;84.12
10464;BME280;5279;42.048;24.638;2023-03-12T02:14:50;96584.78;;;4.78;82.00
10464;BME280;5279;42.048;24.638;2023-03-12T02:17:17;96586.59;;;4.78;82.65
10464;BME280;5279;42.048;24.638;2023-03-12T02:19:52;96592.09;;;4.75;82.12
10464;BME280;5279;42.048;24.638;2023-03-12T02:22:21;96608.94;;;4.72;79.63
10464;BME280;5279;42.048;24.638;2023-03-12T02:24:52;96607.00;;;4.65;79.97
10464;BME280;5279;42.048;24.638;2023-03-12T02:27:22;96609.63;;;4.65;79.23
10464;BME280;5279;42.048;24.638;2023-03-12T02:29:49;96618.28;;;4.65;77.27
10464;BME280;5279;42.048;24.638;2023-03-12T02:32:20;96623.53;;;4.56;75.54
10464;BME280;5279;42.048;24.638;2023-03-12T02:34:48;96626.53;;;4.51;77.16
10464;BME280;5279;42.048;24.638;2023-03-12T02:37:16;96628.78;;;4.56;76.71
10464;BME280;5279;42.048;24.638;2023-03-12T02:39:48;96632.34;;;4.55;79.80
10464;BME280;5279;42.048;24.638;2023-03-12T02:42:17;96643.63;;;4.46;78.99
10464;BME280;5279;42.048;24.638;2023-03-12T02:44:46;96635.63;;;4.47;78.49
10464;BME280;5279;42.048;24.638;2023-03-12T02:47:13;96632.81;;;4.39;79.96
10464;BME280;5279;42.048;24.638;2023-03-12T02:49:39;96632.25;;;4.35;80.58
10464;BME280;5279;42.048;24.638;2023-03-12T02:52:06;96633.66;;;4.39;79.28
10464;BME280;5279;42.048;24.638;2023-03-12T02:54:34;96628.84;;;4.45;80.23
10464;BME280;5279;42.048;24.638;2023-03-12T02:57:01;96639.91;;;4.48;80.90
10464;BME280;5279;42.048;24.638;2023-03-12T02:59:27;96636.44;;;4.48;81.74
10464;BME280;5279;42.048;24.638;2023-03-12T03:01:58;96638.19;;;4.58;79.93
10464;BME280;5279;42.048;24.638;2023-03-12T03:04:26;96631.66;;;4.53;81.56
10464;BME280;5279;42.048;24.638;2023-03-12T03:06:54;96634.97;;;4.55;80.65
10464;BME280;5279;42.048;24.638;2023-03-12T03:09:23;96651.56;;;4.55;81.06
10464;BME280;5279;42.048;24.638;2023-03-12T03:11:50;96645.19;;;4.58;79.50
10464;BME280;5279;42.048;24.638;2023-03-12T03:14:17;96656.13;;;4.63;77.19
10464;BME280;5279;42.048;24.638;2023-03-12T03:16:44;96652.56;;;4.64;76.89
10464;BME280;5279;42.048;24.638;2023-03-12T03:19:12;96666.28;;;4.77;69.57
10464;BME280;5279;42.048;24.638;2023-03-12T03:21:39;96659.78;;;4.81;68.45
10464;BME280;5279;42.048;24.638;2023-03-12T03:24:06;96670.75;;;4.86;66.46
10464;BME280;5279;42.048;24.638;2023-03-12T03:26:33;96673.09;;;4.89;66.85
10464;BME280;5279;42.048;24.638;2023-03-12T03:29:00;96676.19;;;5.04;60.62
10464;BME280;5279;42.048;24.638;2023-03-12T03:31:27;96678.66;;;5.05;60.67
10464;BME280;5279;42.048;24.638;2023-03-12T03:33:54;96688.22;;;5.06;57.88
10464;BME280;5279;42.048;24.638;2023-03-12T03:36:22;96686.72;;;5.13;58.27
10464;BME280;5279;42.048;24.638;2023-03-12T03:38:49;96690.31;;;5.12;58.54
10464;BME280;5279;42.048;24.638;2023-03-12T03:41:16;96687.38;;;5.06;60.12
10464;BME280;5279;42.048;24.638;2023-03-12T03:43:44;96693.19;;;5.09;58.02
10464;BME280;5279;42.048;24.638;2023-03-12T03:46:12;96699.25;;;5.00;59.19
10464;BME280;5279;42.048;24.638;2023-03-12T03:48:40;96699.34;;;4.89;59.59
10464;BME280;5279;42.048;24.638;2023-03-12T03:51:07;96708.78;;;5.01;57.81
10464;BME280;5279;42.048;24.638;2023-03-12T03:53:36;96701.31;;;4.96;58.06
10464;BME280;5279;42.048;24.638;2023-03-12T03:56:06;96716.78;;;5.00;58.18
10464;BME280;5279;42.048;24.638;2023-03-12T03:58:34;96714.16;;;5.00;59.95
10464;BME280;5279;42.048;24.638;2023-03-12T04:01:01;96707.38;;;4.97;59.85
10464;BME280;5279;42.048;24.638;2023-03-12T04:03:27;96705.28;;;4.91;59.13
10464;BME280;5279;42.048;24.638;2023-03-12T04:05:55;96733.06;;;4.93;57.22
10464;BME280;5279;42.048;24.638;2023-03-12T04:08:22;96715.94;;;4.99;56.61
10464;BME280;5279;42.048;24.638;2023-03-12T04:10:51;96726.22;;;5.12;56.14
10464;BME280;5279;42.048;24.638;2023-03-12T04:13:18;96731.75;;;5.09;56.43
10464;BME280;5279;42.048;24.638;2023-03-12T04:15:46;96731.75;;;5.09;57.65
10464;BME280;5279;42.048;24.638;2023-03-12T04:18:12;96723.50;;;5.13;55.49
10464;BME280;5279;42.048;24.638;2023-03-12T04:20:39;96732.06;;;5.15;55.45
10464;BME280;5279;42.048;24.638;2023-03-12T04:23:06;96732.31;;;5.12;56.36
10464;BME280;5279;42.048;24.638;2023-03-12T04:25:33;96743.09;;;5.09;53.74
10464;BME280;5279;42.048;24.638;2023-03-12T04:28:01;96737.16;;;5.07;56.30
10464;BME280;5279;42.048;24.638;2023-03-12T04:30:28;96747.19;;;5.02;58.27
10464;BME280;5279;42.048;24.638;2023-03-12T04:32:55;96743.34;;;5.06;56.62
10464;BME280;5279;42.048;24.638;2023-03-12T04:35:22;96762.00;;;5.03;54.12
10464;BME280;5279;42.048;24.638;2023-03-12T04:37:50;96761.03;;;5.04;55.44
10464;BME280;5279;42.048;24.638;2023-03-12T04:40:17;96761.84;;;5.05;55.60
10464;BME280;5279;42.048;24.638;2023-03-12T04:42:44;96768.72;;;4.96;56.23
10464;BME280;5279;42.048;24.638;2023-03-12T04:45:14;96771.97;;;5.09;55.36
10464;BME280;5279;42.048;24.638;2023-03-12T04:47:41;96774.53;;;5.00;56.31
10464;BME280;5279;42.048;24.638;2023-03-12T04:50:09;96779.25;;;5.06;53.61
10464;BME280;5279;42.048;24.638;2023-03-12T04:52:36;96774.53;;;5.00;54.00
10464;BME280;5279;42.048;24.638;2023-03-12T04:55:04;96789.78;;;5.06;53.53
10464;BME280;5279;42.048;24.638;2023-03-12T04:57:31;96783.41;;;5.08;53.32
10464;BME280;5279;42.048;24.638;2023-03-12T04:59:58;96783.63;;;5.16;53.07
10464;BME280;5279;42.048;24.638;2023-03-12T05:02:26;96787.63;;;5.20;54.08
10464;BME280;5279;42.048;24.638;2023-03-12T05:04:54;96797.69;;;5.15;52.74
10464;BME280;5279;42.048;24.638;2023-03-12T05:07:21;96798.31;;;5.28;52.30
10464;BME280;5279;42.048;24.638;2023-03-12T05:09:48;96814.25;;;5.36;52.08
10464;BME280;5279;42.048;24.638;2023-03-12T05:12:15;96813.75;;;5.52;51.32
10464;BME280;5279;42.048;24.638;2023-03-12T05:14:42;96819.63;;;5.65;51.07
10464;BME280;5279;42.048;24.638;2023-03-12T05:17:09;96824.34;;;5.71;50.40
10464;BME280;5279;42.048;24.638;2023-03-12T05:19:37;96821.03;;;5.79;49.64
10464;BME280;5279;42.048;24.638;2023-03-12T05:22:04;96829.09;;;5.87;50.92
10464;BME280;5279;42.048;24.638;2023-03-12T05:24:31;96832.47;;;6.08;49.49
10464;BME280;5279;42.048;24.638;2023-03-12T05:26:58;96830.84;;;6.26;49.02
10464;BME280;5279;42.048;24.638;2023-03-12T05:29:25;96839.97;;;6.41;51.53
10464;BME280;5279;42.048;24.638;2023-03-12T05:31:51;96847.00;;;6.12;48.09
10464;BME280;5279;42.048;24.638;2023-03-12T05:34:18;96840.53;;;6.16;48.33
10464;BME280;5279;42.048;24.638;2023-03-12T05:36:46;96858.81;;;6.37;49.20
10464;BME280;5279;42.048;24.638;2023-03-12T05:39:13;96859.97;;;6.53;48.50
10464;BME280;5279;42.048;24.638;2023-03-12T05:41:40;96856.63;;;6.61;46.98
10464;BME280;5279;42.048;24.638;2023-03-12T05:44:10;96867.84;;;6.73;47.11
10464;BME280;5279;42.048;24.638;2023-03-12T05:46:36;96880.59;;;6.68;45.78
10464;BME280;5279;42.048;24.638;2023-03-12T05:49:03;96875.31;;;6.48;45.36
10464;BME280;5279;42.048;24.638;2023-03-12T05:51:30;96859.13;;;6.63;46.93
10464;BME280;5279;42.048;24.638;2023-03-12T05:53:58;96876.72;;;6.52;46.32
10464;BME280;5279;42.048;24.638;2023-03-12T05:56:26;96871.84;;;6.57;45.44
10464;BME280;5279;42.048;24.638;2023-03-12T05:58:53;96872.13;;;6.64;46.27
10464;BME280;5279;42.048;24.638;2023-03-12T06:01:22;96881.28;;;6.89;45.52
10464;BME280;5279;42.048;24.638;2023-03-12T06:03:49;96878.66;;;7.08;44.67
10464;BME280;5279;42.048;24.638;2023-03-12T06:06:17;96889.03;;;7.00;44.48
10464;BME280;5279;42.048;24.638;2023-03-12T06:08:44;96902.06;;;6.92;43.98
10464;BME280;5279;42.048;24.638;2023-03-12T06:11:12;96912.06;;;7.17;45.24
10464;BME280;5279;42.048;24.638;2023-03-12T06:13:39;96892.59;;;7.37;45.15
10464;BME280;5279;42.048;24.638;2023-03-12T06:16:08;96888.91;;;7.57;43.82
10464;BME280;5279;42.048;24.638;2023-03-12T06:18:37;96899.75;;;7.54;43.94
10464;BME280;5279;42.048;24.638;2023-03-12T06:21:08;96902.16;;;7.85;43.65
10464;BME280;5279;42.048;24.638;2023-03-12T06:23:36;96933.25;;;7.35;42.53
10464;BME280;5279;42.048;24.638;2023-03-12T06:26:03;96915.78;;;7.14;44.48
10464;BME280;5279;42.048;24.638;2023-03-12T06:28:32;96912.34;;;7.60;44.26
10464;BME280;5279;42.048;24.638;2023-03-12T06:31:00;96922.00;;;8.16;43.79
10464;BME280;5279;42.048;24.638;2023-03-12T06:33:27;96930.44;;;8.56;42.02
10464;BME280;5279;42.048;24.638;2023-03-12T06:35:55;96926.44;;;8.88;41.34
10464;BME280;5279;42.048;24.638;2023-03-12T06:38:22;96928.41;;;8.50;40.30
10464;BME280;5279;42.048;24.638;2023-03-12T06:40:53;96915.16;;;8.33;40.72
10464;BME280;5279;42.048;24.638;2023-03-12T06:43:20;96932.66;;;8.24;42.17
10464;BME280;5279;42.048;24.638;2023-03-12T06:45:49;96940.72;;;8.59;41.28
10464;BME280;5279;42.048;24.638;2023-03-12T06:48:16;96945.25;;;8.85;41.40
10464;BME280;5279;42.048;24.638;2023-03-12T06:50:43;96952.53;;;9.18;41.13
10464;BME280;5279;42.048;24.638;2023-03-12T06:53:10;96954.59;;;8.79;39.87
10464;BME280;5279;42.048;24.638;2023-03-12T06:55:37;96948.72;;;9.03;40.54
10464;BME280;5279;42.048;24.638;2023-03-12T06:58:04;96951.31;;;8.95;39.41
10464;BME280;5279;42.048;24.638;2023-03-12T07:00:31;96951.72;;;8.72;39.54
10464;BME280;5279;42.048;24.638;2023-03-12T07:03:00;96967.41;;;8.56;39.67
10464;BME280;5279;42.048;24.638;2023-03-12T07:05:27;96972.38;;;7.86;42.07
10464;BME280;5279;42.048;24.638;2023-03-12T07:07:54;96988.78;;;7.80;40.94
10464;BME280;5279;42.048;24.638;2023-03-12T07:10:22;96987.63;;;8.01;42.55
10464;BME280;5279;42.048;24.638;2023-03-12T07:12:49;96987.50;;;8.40;41.63
10464;BME280;5279;42.048;24.638;2023-03-12T07:15:16;96978.84;;;8.74;41.31
10464;BME280;5279;42.048;24.638;2023-03-12T07:17:43;96995.25;;;9.31;41.35
10464;BME280;5279;42.048;24.638;2023-03-12T07:20:12;96983.78;;;9.05;39.80
10464;BME280;5279;42.048;24.638;2023-03-12T07:22:39;96983.66;;;9.24;41.04
10464;BME280;5279;42.048;24.638;2023-03-12T07:25:06;96990.13;;;9.47;41.32
10464;BME280;5279;42.048;24.638;2023-03-12T07:27:34;96991.91;;;9.64;40.35
10464;BME280;5279;42.048;24.638;2023-03-12T07:30:00;96990.72;;;9.41;38.88
10464;BME280;5279;42.048;24.638;2023-03-12T07:32:27;96977.22;;;9.26;40.69
10464;BME280;5279;42.048;24.638;2023-03-12T07:34:54;96973.41;;;8.94;39.07
10464;BME280;5279;42.048;24.638;2023-03-12T07:37:23;96976.06;;;9.29;40.72
10464;BME280;5279;42.048;24.638;2023-03-12T07:39:49;96971.34;;;9.15;39.75
10464;BME280;5279;42.048;24.638;2023-03-12T07:42:18;96966.69;;;8.82;39.30
10464;BME280;5279;42.048;24.638;2023-03-12T07:44:45;96964.84;;;8.64;39.99
10464;BME280;5279;42.048;24.638;2023-03-12T07:47:12;96976.34;;;8.91;40.75
10464;BME280;5279;42.048;24.638;2023-03-12T07:49:39;96974.19;;;9.39;41.87
10464;BME280;5279;42.048;24.638;2023-03-12T07:52:06;96981.50;;;9.45;39.18
10464;BME280;5279;42.048;24.638;2023-03-12T07:54:37;96975.00;;;9.57;39.11
10464;BME280;5279;42.048;24.638;2023-03-12T07:57:04;96941.16;;;9.95;39.58
10464;BME280;5279;42.048;24.638;2023-03-12T07:59:31;96952.94;;;10.00;38.40
10464;BME280;5279;42.048;24.638;2023-03-12T08:01:58;96958.34;;;10.50;43.35
10464;BME280;5279;42.048;24.638;2023-03-12T08:04:25;96952.50;;;10.88;38.74
10464;BME280;5279;42.048;24.638;2023-03-12T08:06:52;96966.75;;;10.87;37.29
10464;BME280;5279;42.048;24.638;2023-03-12T08:09:19;96958.72;;;11.21;38.49
10464;BME280;5279;42.048;24.638;2023-03-12T08:11:47;96958.56;;;11.63;36.14
10464;BME280;5279;42.048;24.638;2023-03-12T08:14:14;96962.84;;;11.56;35.86
10464;BME280;5279;42.048;24.638;2023-03-12T08:16:41;96963.03;;;11.87;34.63
10464;BME280;5279;42.048;24.638;2023-03-12T08:19:07;96969.44;;;12.25;34.81
10464;BME280;5279;42.048;24.638;2023-03-12T08:21:34;96971.41;;;12.23;33.47
10464;BME280;5279;42.048;24.638;2023-03-12T08:24:02;96974.34;;;10.74;35.61
10464;BME280;5279;42.048;24.638;2023-03-12T08:26:29;96968.56;;;10.37;37.02
10464;BME280;5279;42.048;24.638;2023-03-12T08:28:57;96984.75;;;10.34;37.05
10464;BME280;5279;42.048;24.638;2023-03-12T08:31:25;96976.56;;;10.19;36.83
10464;BME280;5279;42.048;24.638;2023-03-12T08:33:52;96975.78;;;10.01;37.60
10464;BME280;5279;42.048;24.638;2023-03-12T08:36:18;96975.59;;;10.54;39.34
10464;BME280;5279;42.048;24.638;2023-03-12T08:38:45;96978.53;;;10.93;37.09
10464;BME280;5279;42.048;24.638;2023-03-12T08:41:12;96976.59;;;10.61;35.03
10464;BME280;5279;42.048;24.638;2023-03-12T08:43:39;96969.00;;;9.99;36.70
10464;BME280;5279;42.048;24.638;2023-03-12T08:46:07;96977.59;;;10.01;37.31
10464;BME280;5279;42.048;24.638;2023-03-12T08:48:34;96970.34;;;10.70;37.51
10464;BME280;5279;42.048;24.638;2023-03-12T08:51:01;96970.09;;;10.97;36.39
10464;BME280;5279;42.048;24.638;2023-03-12T08:53:31;96974.00;;;10.69;35.31
10464;BME280;5279;42.048;24.638;2023-03-12T08:56:00;96971.59;;;10.50;36.81
10464;BME280;5279;42.048;24.638;2023-03-12T08:58:28;96968.69;;;10.69;36.46
10464;BME280;5279;42.048;24.638;2023-03-12T09:00:55;96969.47;;;11.12;37.03
10464;BME280;5279;42.048;24.638;2023-03-12T09:03:24;96981.09;;;11.35;35.22
10464;BME280;5279;42.048;24.638;2023-03-12T09:06:01;96973.50;;;11.88;34.77
10464;BME280;5279;42.048;24.638;2023-03-12T09:08:28;96959.78;;;12.32;33.98
10464;BME280;5279;42.048;24.638;2023-03-12T09:10:58;96959.47;;;12.96;33.85
10464;BME280;5279;42.048;24.638;2023-03-12T09:13:25;96962.97;;;13.50;32.51
10464;BME280;5279;42.048;24.638;2023-03-12T09:15:57;96958.13;;;13.54;30.78
10464;BME280;5279;42.048;24.638;2023-03-12T09:18:25;96952.22;;;13.81;30.58
10464;BME280;5279;42.048;24.638;2023-03-12T09:20:52;96962.34;;;14.38;31.64
10464;BME280;5279;42.048;24.638;2023-03-12T09:23:20;96960.25;;;14.10;29.77
10464;BME280;5279;42.048;24.638;2023-03-12T09:25:48;96946.06;;;14.76;28.94
10464;BME280;5279;42.048;24.638;2023-03-12T09:28:15;96967.19;;;15.92;28.50
10464;BME280;5279;42.048;24.638;2023-03-12T09:30:42;96965.19;;;15.37;27.12
10464;BME280;5279;42.048;24.638;2023-03-12T09:33:10;96945.41;;;15.95;26.41
10464;BME280;5279;42.048;24.638;2023-03-12T09:35:38;96938.84;;;15.70;26.54
10464;BME280;5279;42.048;24.638;2023-03-12T09:38:06;96955.09;;;15.75;27.23
10464;BME280;5279;42.048;24.638;2023-03-12T09:40:35;96945.50;;;16.70;26.90
10464;BME280;5279;42.048;24.638;2023-03-12T09:43:10;96965.78;;;17.60;25.88
10464;BME280;5279;42.048;24.638;2023-03-12T09:45:43;96969.06;;;18.34;24.39
10464;BME280;5279;42.048;24.638;2023-03-12T09:48:13;96954.34;;;16.71;24.58
10464;BME280;5279;42.048;24.638;2023-03-12T09:50:45;96965.03;;;14.00;26.75
10464;BME280;5279;42.048;24.638;2023-03-12T09:53:19;96958.38;;;14.19;26.38
10464;BME280;5279;42.048;24.638;2023-03-12T09:55:49;96958.31;;;13.90;26.64
10464;BME280;5279;42.048;24.638;2023-03-12T09:58:21;96966.25;;;15.21;25.74
10464;BME280;5279;42.048;24.638;2023-03-12T10:00:54;96955.69;;;14.63;27.29
10464;BME280;5279;42.048;24.638;2023-03-12T10:03:55;96946.31;;;15.39;27.11
10464;BME280;5279;42.048;24.638;2023-03-12T10:06:31;96972.38;;;16.00;26.32
10464;BME280;5279;42.048;24.638;2023-03-12T10:09:15;96971.88;;;16.46;24.80
10464;BME280;5279;42.048;24.638;2023-03-12T10:11:51;96970.38;;;16.09;25.85
10464;BME280;5279;42.048;24.638;2023-03-12T10:14:34;96970.34;;;17.66;25.14
10464;BME280;5279;42.048;24.638;2023-03-12T10:17:21;96974.75;;;18.90;22.58
10464;BME280;5279;42.048;24.638;2023-03-12T10:20:02;96968.66;;;18.57;21.68
10464;BME280;5279;42.048;24.638;2023-03-12T10:22:46;96972.69;;;18.92;22.37
10464;BME280;5279;42.048;24.638;2023-03-12T10:25:19;96970.22;;;21.08;21.30
10464;BME280;5279;42.048;24.638;2023-03-12T10:27:48;96979.50;;;21.60;21.71
10464;BME280;5279;42.048;24.638;2023-03-12T10:30:17;96983.47;;;21.57;19.85
10464;BME280;5279;42.048;24.638;2023-03-12T10:32:48;96975.94;;;21.18;20.98
10464;BME280;5279;42.048;24.638;2023-03-12T10:35:18;96975.44;;;21.39;20.90
10464;BME280;5279;42.048;24.638;2023-03-12T10:37:48;96967.31;;;23.15;19.68
10464;BME280;5279;42.048;24.638;2023-03-12T10:40:18;96969.84;;;23.73;19.66
10464;BME280;5279;42.048;24.638;2023-03-12T10:42:45;96957.91;;;24.52;18.82
10464;BME280;5279;42.048;24.638;2023-03-12T10:45:20;96958.44;;;23.43;18.96
10464;BME280;5279;42.048;24.638;2023-03-12T10:47:51;96961.44;;;23.18;18.30
10464;BME280;5279;42.048;24.638;2023-03-12T10:50:23;96969.13;;;22.98;19.74
10464;BME280;5279;42.048;24.638;2023-03-12T10:52:53;96970.44;;;21.84;19.61
10464;BME280;5279;42.048;24.638;2023-03-12T10:55:37;96968.19;;;22.57;19.85
10464;BME280;5279;42.048;24.638;2023-03-12T10:58:04;96956.53;;;23.71;18.87
10464;BME280;5279;42.048;24.638;2023-03-12T11:00:31;96956.31;;;21.70;20.19
10464;BME280;5279;42.048;24.638;2023-03-12T11:02:59;96962.06;;;22.62;19.25
10464;BME280;5279;42.048;24.638;2023-03-12T11:05:30;96974.66;;;21.50;21.02
10464;BME280;5279;42.048;24.638;2023-03-12T11:07:59;96981.88;;;21.38;19.60
10464;BME280;5279;42.048;24.638;2023-03-12T11:10:38;96974.06;;;21.48;19.65
10464;BME280;5279;42.048;24.638;2023-03-12T11:13:22;96978.28;;;22.39;21.19
10464;BME280;5279;42.048;24.638;2023-03-12T11:15:49;96971.25;;;22.84;18.94
10464;BME280;5279;42.048;24.638;2023-03-12T11:18:32;96965.88;;;21.25;21.32
10464;BME280;5279;42.048;24.638;2023-03-12T11:21:17;96958.56;;;23.36;19.48
10464;BME280;5279;42.048;24.638;2023-03-12T11:24:03;96946.75;;;25.04;18.83
10464;BME280;5279;42.048;24.638;2023-03-12T11:26:36;96945.91;;;25.03;18.04
10464;BME280;5279;42.048;24.638;2023-03-12T11:29:05;96944.97;;;25.58;17.66
10464;BME280;5279;42.048;24.638;2023-03-12T11:31:37;96951.56;;;25.23;16.70
10464;BME280;5279;42.048;24.638;2023-03-12T11:34:06;96943.16;;;25.20;16.46
10464;BME280;5279;42.048;24.638;2023-03-12T11:36:40;96953.66;;;25.86;16.77
10464;BME280;5279;42.048;24.638;2023-03-12T11:39:20;96961.00;;;22.16;18.37
10464;BME280;5279;42.048;24.638;2023-03-12T11:42:09;96959.19;;;20.12;20.28
10464;BME280;5279;42.048;24.638;2023-03-12T11:44:47;96955.84;;;17.54;22.02
10464;BME280;5279;42.048;24.638;2023-03-12T11:47:31;96955.53;;;19.37;21.32
10464;BME280;5279;42.048;24.638;2023-03-12T11:50:14;96957.41;;;19.75;20.89
10464;BME280;5279;42.048;24.638;2023-03-12T11:52:58;96952.91;;;21.63;19.65
10464;BME280;5279;42.048;24.638;2023-03-12T11:55:40;96948.81;;;20.77;20.16
10464;BME280;5279;42.048;24.638;2023-03-12T11:58:33;96941.56;;;22.72;19.05
10464;BME280;5279;42.048;24.638;2023-03-12T12:01:09;96938.97;;;22.77;18.68
10464;BME280;5279;42.048;24.638;2023-03-12T12:04:02;96936.41;;;20.94;19.78
10464;BME280;5279;42.048;24.638;2023-03-12T12:06:39;96945.97;;;23.02;18.39
10464;BME280;5279;42.048;24.638;2023-03-12T12:09:17;96949.16;;;23.83;18.44
10464;BME280;5279;42.048;24.638;2023-03-12T12:11:59;96936.41;;;20.76;19.99
10464;BME280;5279;42.048;24.638;2023-03-12T12:14:39;96964.72;;;18.59;22.37
10464;BME280;5279;42.048;24.638;2023-03-12T12:17:15;96953.97;;;20.42;20.68
10464;BME280;5279;42.048;24.638;2023-03-12T12:20:02;96946.72;;;22.16;19.59
10464;BME280;5279;42.048;24.638;2023-03-12T12:22:45;96948.75;;;21.49;18.65
10464;BME280;5279;42.048;24.638;2023-03-12T12:25:29;96944.59;;;18.88;21.40
10464;BME280;5279;42.048;24.638;2023-03-12T12:28:11;96941.19;;;21.10;20.21
10464;BME280;5279;42.048;24.638;2023-03-12T12:30:52;96944.22;;;20.41;19.91
10464;BME280;5279;42.048;24.638;2023-03-12T12:33:30;96947.41;;;22.81;19.88
10464;BME280;5279;42.048;24.638;2023-03-12T12:35:59;96948.00;;;24.79;17.68
10464;BME280;5279;42.048;24.638;2023-03-12T12:38:28;96956.31;;;25.33;17.01
10464;BME280;5279;42.048;24.638;2023-03-12T12:41:00;96955.13;;;25.72;16.36
10464;BME280;5279;42.048;24.638;2023-03-12T12:43:32;96943.34;;;26.47;16.25
10464;BME280;5279;42.048;24.638;2023-03-12T12:46:05;96947.22;;;27.60;15.57
10464;BME280;5279;42.048;24.638;2023-03-12T12:48:38;96942.06;;;27.01;16.13
10464;BME280;5279;42.048;24.638;2023-03-12T12:51:07;96958.97;;;27.13;16.30
10464;BME280;5279;42.048;24.638;2023-03-12T12:53:40;96942.38;;;28.28;14.68
10464;BME280;5279;42.048;24.638;2023-03-12T12:56:14;96955.44;;;28.86;14.30
10464;BME280;5279;42.048;24.638;2023-03-12T13:01:37;96963.06;;;28.03;14.44
10464;BME280;5279;42.048;24.638;2023-03-12T13:04:08;96952.94;;;29.69;14.22
10464;BME280;5279;42.048;24.638;2023-03-12T13:06:53;96958.53;;;29.44;13.98
10464;BME280;5279;42.048;24.638;2023-03-12T13:09:22;96947.59;;;29.49;13.76
10464;BME280;5279;42.048;24.638;2023-03-12T13:12:06;96963.66;;;26.39;15.16
10464;BME280;5279;42.048;24.638;2023-03-12T13:14:38;96955.81;;;26.48;14.99
10464;BME280;5279;42.048;24.638;2023-03-12T13:19:49;96960.16;;;27.38;15.03
10464;BME280;5279;42.048;24.638;2023-03-12T13:22:26;96957.44;;;27.33;14.91
10464;BME280;5279;42.048;24.638;2023-03-12T13:24:59;96955.41;;;27.08;15.02